Lake Huntington, New York
Current Conditions -  °F | °C
As of 12:55 AM on Saturday 20 Dec 2014 (Local Time) from KMSV Reporting Station
Overcast Overcast  
Wind Chill: 15°   Ceiling: 1300
Heat Index: 25°   Visibility: 10mi
Dew Point: 19°   Wind: 9mph
Humidity: 80%   Direction: 340°NNW
Pressure: 30.14"   Gusts: NA
Location:  41.68°N, 74.99°W
Report Text: KMSV 200555Z AUTO 34008KT 10SM OVC013 M04/M07 A3014 RMK AO1 11040 21040 52007
Loading
Personal Weather Stations






























Interactive Weather Map New forecast layout! Learn more

10-Day Weather Forecast

Advertisements
Track Severe Weather on mobile